Terminal Aerodrome Forecast
Issued by NWS

Home | Current Version | Previous Version | Text Only | Print | Product List | Glossary On
Versions: 1 2 3 4 5 6 7 8 9 10 11 12
000
FTUS43 KFGF 291100
TAFBJI
TAF
KBJI 291130Z 2912/3012 21012G20KT P6SM -DZ OVC008
     FM291300 28018G25KT P6SM VCSH OVC015
     FM291500 30020G28KT P6SM BKN015
     FM292000 30015G22KT P6SM SCT025
     FM300000 VRB06KT P6SM SCT250=

USA.gov is the U.S. government's official web portal to all federal, state and local government web resources and services.